createdAt,value
2017-05-30T00:00:12.004Z,23.27
2017-05-30T00:10:12.055Z,23.12
2017-05-30T00:20:12.034Z,23.27
2017-05-30T00:30:12.074Z,23.43
2017-05-30T00:40:12.059Z,23.12
2017-05-30T00:50:11.996Z,22.82
2017-05-30T01:00:12.056Z,22.59
2017-05-30T01:10:12.020Z,22.32
2017-05-30T01:20:12.098Z,22.14
2017-05-30T01:30:12.048Z,22.04
2017-05-30T01:40:12.009Z,21.9
2017-05-30T01:50:12.277Z,22.1
2017-05-30T02:00:12.035Z,21.78
2017-05-30T02:10:12.101Z,21.81
2017-05-30T02:20:12.085Z,21.87
2017-05-30T02:30:12.011Z,21.79
2017-05-30T02:40:12.071Z,21.61
2017-05-30T02:50:12.028Z,21.51
2017-05-30T03:00:12.085Z,21.5
2017-05-30T03:10:12.061Z,21.26
2017-05-30T03:20:12.049Z,21.19
2017-05-30T03:30:12.094Z,21.08
2017-05-30T03:40:12.049Z,20.86
2017-05-30T03:50:12.108Z,20.69
2017-05-30T04:00:12.059Z,20.46
2017-05-30T04:10:12.018Z,20.42
2017-05-30T04:20:12.081Z,20.58
2017-05-30T04:30:12.065Z,20.54
2017-05-30T04:40:12.026Z,20.8
2017-05-30T04:50:12.092Z,21.26
2017-05-30T05:00:12.024Z,21.39
2017-05-30T05:10:12.113Z,21.59
2017-05-30T05:20:12.048Z,21.99
2017-05-30T05:30:12.117Z,22.34
2017-05-30T05:40:12.095Z,22.83
2017-05-30T05:50:12.041Z,22.9
2017-05-30T06:00:12.097Z,23.45
2017-05-30T06:10:12.058Z,25.25
2017-05-30T06:20:12.127Z,26.18
2017-05-30T06:30:12.093Z,27.29
2017-05-30T06:40:12.041Z,29.1
2017-05-30T06:50:12.122Z,28.01
2017-05-30T07:00:12.069Z,25.5
2017-05-30T07:10:12.045Z,24.75
2017-05-30T07:20:12.032Z,26.64
2017-05-30T07:30:12.077Z,29.43
2017-05-30T07:40:12.234Z,30.05
2017-05-30T07:50:12.219Z,31.55
2017-05-30T08:00:12.164Z,32.88
2017-05-30T08:10:12.123Z,34.99
2017-05-30T08:20:12.114Z,33.89
2017-05-30T08:30:12.283Z,34.99
2017-05-30T08:40:12.257Z,33.9
2017-05-30T08:50:12.140Z,33.61
2017-05-30T09:00:12.112Z,33.86
2017-05-30T09:10:12.198Z,31.87
2017-05-30T09:20:12.135Z,30.26
2017-05-30T09:30:12.109Z,29.19
2017-05-30T09:40:12.264Z,27.61
2017-05-30T09:50:12.115Z,28.03
2017-05-30T10:00:12.171Z,28.62
2017-05-30T10:10:12.156Z,27.86
2017-05-30T10:20:12.122Z,27.14
2017-05-30T10:30:12.186Z,27.59
2017-05-30T10:40:12.152Z,27.58
2017-05-30T10:50:12.229Z,27.82
2017-05-30T11:00:12.130Z,27.74
2017-05-30T11:10:12.095Z,27.04
2017-05-30T11:20:12.180Z,27.14
2017-05-30T11:30:12.136Z,26.5
2017-05-30T11:40:12.219Z,26.15
2017-05-30T11:50:12.175Z,27.09
2017-05-30T12:00:12.136Z,26.22
2017-05-30T12:10:12.197Z,24.83
2017-05-30T12:20:12.183Z,24.95
2017-05-30T12:30:12.215Z,25.69
2017-05-30T12:40:12.172Z,25.91
2017-05-30T12:50:12.305Z,26.27
2017-05-30T13:00:12.211Z,25.01
2017-05-30T13:10:12.174Z,23.85
2017-05-30T13:20:12.231Z,23.9
2017-05-30T13:30:12.190Z,24.45
2017-05-30T13:40:12.305Z,25.05
2017-05-30T13:50:12.270Z,26.2
2017-05-30T14:00:13.186Z,26.49
2017-05-30T14:10:12.244Z,26.79
2017-05-30T14:20:12.201Z,27.11
2017-05-30T14:30:12.176Z,26.62
2017-05-30T14:40:12.280Z,25.77
2017-05-30T14:50:12.225Z,25.8
2017-05-30T15:00:12.241Z,26.02
2017-05-30T15:10:12.333Z,25.69
2017-05-30T15:20:12.349Z,26.06
2017-05-30T15:30:12.308Z,26.08
2017-05-30T15:40:12.204Z,25.99
2017-05-30T15:50:13.256Z,25.42
2017-05-30T16:00:12.216Z,24.9
2017-05-30T16:10:12.172Z,25.16
2017-05-30T16:20:12.203Z,25.22
2017-05-30T16:30:12.185Z,25.01
2017-05-30T16:40:13.253Z,24.73
2017-05-30T16:50:12.207Z,24.83
2017-05-30T17:00:12.236Z,24.47
2017-05-30T17:10:13.206Z,24.05
2017-05-30T17:20:12.207Z,23.95
2017-05-30T17:30:12.193Z,23.98
2017-05-30T17:40:12.225Z,23.85
2017-05-30T17:50:12.254Z,23.76
2017-05-30T18:00:12.283Z,23.35
2017-05-30T18:10:12.261Z,22.78
2017-05-30T18:20:12.377Z,22.47
2017-05-30T18:30:12.309Z,22.12
2017-05-30T18:40:14.317Z,21.67
2017-05-30T18:50:12.398Z,21.27
2017-05-30T19:00:13.295Z,21.11
2017-05-30T19:10:13.325Z,20.96
2017-05-30T19:20:12.318Z,20.79
2017-05-30T19:30:12.292Z,20.62
2017-05-30T19:40:12.312Z,20.16
2017-05-30T19:50:12.327Z,19.75
2017-05-30T20:00:12.250Z,19.29
2017-05-30T20:10:12.337Z,18.82
2017-05-30T20:20:12.273Z,18.52
2017-05-30T20:30:12.405Z,18.55
2017-05-30T20:40:12.278Z,18.4
2017-05-30T20:50:12.224Z,18.19
2017-05-30T21:00:12.298Z,18.12
2017-05-30T21:10:12.304Z,17.82
2017-05-30T21:20:12.429Z,17.97
2017-05-30T21:30:12.314Z,18.22
2017-05-30T21:40:12.358Z,17.97
2017-05-30T21:50:12.298Z,17.85
2017-05-30T22:00:12.395Z,17.44
2017-05-30T22:10:12.685Z,17.26
2017-05-30T22:20:16.772Z,17.22
2017-05-30T22:30:12.296Z,17.2
2017-05-30T22:40:14.334Z,17.1
2017-05-30T22:50:12.272Z,16.93
2017-05-30T23:00:12.224Z,16.73
2017-05-30T23:10:12.301Z,16.85
2017-05-30T23:20:12.299Z,16.67
2017-05-30T23:30:14.348Z,16.96
2017-05-30T23:40:12.426Z,16.67
2017-05-30T23:50:18.095Z,16.62
